createdAt,value
2023-03-10T00:01:30.699Z,97870.53
2023-03-10T00:06:35.621Z,97869.13
2023-03-10T00:11:38.286Z,97873.63
2023-03-10T00:16:41.452Z,97862.38
2023-03-10T00:21:45.718Z,97878.75
2023-03-10T00:26:50.075Z,97890.94
2023-03-10T00:31:52.601Z,97893.66
2023-03-10T00:36:55.146Z,97878.41
2023-03-10T00:41:58.909Z,97875.66
2023-03-10T00:47:01.463Z,97906.81
2023-03-10T00:52:04.552Z,97895.75
2023-03-10T00:57:07.707Z,97903.72
2023-03-10T01:02:10.448Z,97899.41
2023-03-10T01:07:12.996Z,97900.25
2023-03-10T01:12:15.598Z,97907.47
2023-03-10T01:17:18.125Z,97901.75
2023-03-10T01:22:20.914Z,97879.38
2023-03-10T01:27:23.487Z,97889.91
2023-03-10T01:32:26.256Z,97895.28
2023-03-10T01:37:28.955Z,97897.13
2023-03-10T01:42:32.402Z,97894.44
2023-03-10T01:47:35.154Z,97899.50
2023-03-10T01:52:42.977Z,97907.97
2023-03-10T01:57:54.398Z,97920.75
2023-03-10T02:03:12.975Z,97924.03
2023-03-10T02:08:17.084Z,97935.06
2023-03-10T02:13:20.396Z,97933.38
2023-03-10T02:18:24.200Z,97935.28
2023-03-10T02:23:51.316Z,97938.75
2023-03-10T02:29:00.769Z,97946.28
2023-03-10T02:34:06.904Z,97956.28
2023-03-10T02:39:09.973Z,97970.53
2023-03-10T02:44:16.903Z,97980.19
2023-03-10T02:49:23.448Z,97974.28
2023-03-10T02:54:27.676Z,97984.91
2023-03-10T02:59:30.237Z,97956.56
2023-03-10T03:04:33.100Z,97993.84
2023-03-10T03:09:35.854Z,97975.44
2023-03-10T03:14:38.772Z,97991.13
2023-03-10T03:19:43.025Z,97996.06
2023-03-10T03:24:45.738Z,98000.63
2023-03-10T03:29:48.508Z,98017.28
2023-03-10T03:34:51.234Z,98021.22
2023-03-10T03:39:53.858Z,98003.88
2023-03-10T03:44:57.487Z,98020.56
2023-03-10T03:50:00.592Z,98029.72
2023-03-10T03:55:04.273Z,98019.31
2023-03-10T04:00:09.390Z,98037.19
2023-03-10T04:05:15.610Z,98039.63
2023-03-10T04:10:21.234Z,98046.09
2023-03-10T04:15:24.335Z,98055.38
2023-03-10T04:20:27.374Z,98057.94
2023-03-10T04:25:30.498Z,98068.13
2023-03-10T04:30:33.218Z,98046.13
2023-03-10T04:35:44.935Z,98077.47
2023-03-10T04:40:58.758Z,98078.28
2023-03-10T04:46:07.280Z,98067.84
2023-03-10T04:51:12.534Z,98095.00
2023-03-10T04:56:21.749Z,98110.56
2023-03-10T05:01:24.651Z,98123.63
2023-03-10T05:06:33.963Z,98125.78
2023-03-10T05:11:47.320Z,98128.19
2023-03-10T05:16:50.825Z,98145.03
2023-03-10T05:21:53.776Z,98139.31
2023-03-10T05:26:57.001Z,98155.81
2023-03-10T05:32:00.849Z,98160.34
2023-03-10T05:37:09.482Z,98168.72
2023-03-10T05:42:12.806Z,98172.47
2023-03-10T05:47:19.273Z,98178.50
2023-03-10T05:52:23.136Z,98193.47
2023-03-10T05:57:26.380Z,98177.31
2023-03-10T06:02:29.170Z,98216.00
2023-03-10T06:07:32.141Z,98219.84
2023-03-10T06:12:34.714Z,98210.19
2023-03-10T06:17:37.365Z,98231.78
2023-03-10T06:22:40.039Z,98231.47
2023-03-10T06:27:42.544Z,98246.47
2023-03-10T06:32:45.056Z,98239.56
2023-03-10T06:37:47.675Z,98248.41
2023-03-10T06:42:50.292Z,98255.47
2023-03-10T06:47:52.957Z,98263.69
2023-03-10T06:52:58.275Z,98237.72
2023-03-10T06:58:01.040Z,98273.56
2023-03-10T07:03:04.275Z,98276.44
2023-03-10T07:08:06.843Z,98275.22
2023-03-10T07:13:10.888Z,98284.63
2023-03-10T07:18:13.792Z,98287.19
2023-03-10T07:23:16.445Z,98303.13
2023-03-10T07:28:19.196Z,98306.28
2023-03-10T07:33:21.928Z,98298.88
2023-03-10T07:38:25.242Z,98306.88
2023-03-10T07:43:27.929Z,98310.00
2023-03-10T07:48:30.609Z,98304.75
2023-03-10T07:53:33.564Z,98320.81
2023-03-10T07:58:36.164Z,98317.88
2023-03-10T08:03:38.708Z,98328.38
2023-03-10T08:08:41.354Z,98338.69
2023-03-10T08:13:46.177Z,98330.13
2023-03-10T08:18:51.525Z,98335.22
2023-03-10T08:23:54.177Z,98340.97
2023-03-10T08:28:56.731Z,98345.75
2023-03-10T08:33:59.410Z,98321.47
2023-03-10T08:39:02.466Z,98359.44
2023-03-10T08:44:06.186Z,98369.53
2023-03-10T08:49:09.600Z,98349.81
2023-03-10T08:54:14.778Z,98362.06
2023-03-10T08:59:18.322Z,98359.78
2023-03-10T09:04:20.859Z,98386.13
2023-03-10T09:09:23.737Z,98393.94
2023-03-10T09:14:26.668Z,98385.47
2023-03-10T09:19:29.421Z,98399.19
2023-03-10T09:24:32.104Z,98402.94
2023-03-10T09:29:43.172Z,98398.28
2023-03-10T09:34:46.063Z,98396.91
2023-03-10T09:39:48.759Z,98410.59
2023-03-10T09:44:57.042Z,98398.13
2023-03-10T09:50:29.808Z,98432.50
2023-03-10T09:55:47.366Z,98422.13
2023-03-10T10:00:50.905Z,98409.59
2023-03-10T10:05:56.769Z,98422.41
2023-03-10T10:11:01.047Z,98427.66
2023-03-10T10:16:33.605Z,98432.09
2023-03-10T10:21:49.859Z,98427.91
2023-03-10T10:26:52.690Z,98426.56
2023-03-10T10:32:12.488Z,98431.25
2023-03-10T10:37:29.913Z,98434.16
2023-03-10T10:42:34.836Z,98443.66
2023-03-10T10:47:47.957Z,98449.03
2023-03-10T10:53:19.695Z,98456.81
2023-03-10T10:58:37.385Z,98473.19
2023-03-10T11:03:45.575Z,98473.06
2023-03-10T11:08:51.439Z,98473.28
2023-03-10T11:14:31.692Z,98476.66
2023-03-10T11:20:13.393Z,98493.66
2023-03-10T11:25:21.156Z,98500.53
2023-03-10T11:30:32.588Z,98511.94
2023-03-10T11:35:43.916Z,98518.56
2023-03-10T11:40:56.394Z,98523.50
2023-03-10T11:46:05.574Z,98538.72
2023-03-10T11:51:27.320Z,98542.84
2023-03-10T11:56:30.218Z,98519.09
2023-03-10T12:01:42.609Z,98549.00
2023-03-10T12:06:55.781Z,98532.25
2023-03-10T12:11:59.790Z,98571.03
2023-03-10T12:17:04.294Z,98559.63
2023-03-10T12:22:24.936Z,98568.47
2023-03-10T12:27:27.572Z,98570.63
2023-03-10T12:32:44.444Z,98568.66
2023-03-10T12:37:47.147Z,98591.19
2023-03-10T12:42:49.769Z,98606.75
2023-03-10T12:48:12.392Z,98599.69
2023-03-10T12:53:27.277Z,98610.44
2023-03-10T12:58:30.797Z,98609.34
2023-03-10T13:03:46.244Z,98612.53
2023-03-10T13:09:14.620Z,98599.66
2023-03-10T13:14:22.752Z,98617.34
2023-03-10T13:19:31.335Z,98614.59
2023-03-10T13:24:39.162Z,98617.28
2023-03-10T13:29:59.782Z,98613.88
2023-03-10T13:35:36.402Z,98644.53
2023-03-10T13:40:43.066Z,98648.50
2023-03-10T13:45:46.344Z,98642.72
2023-03-10T13:51:03.198Z,98648.38
2023-03-10T13:56:36.780Z,98652.22
2023-03-10T14:01:50.266Z,98654.41
2023-03-10T14:07:13.985Z,98656.44
2023-03-10T14:12:38.452Z,98674.13
2023-03-10T14:17:43.597Z,98658.03
2023-03-10T14:22:46.179Z,98677.28
2023-03-10T14:33:16.923Z,98682.03
2023-03-10T14:38:19.624Z,98682.22
2023-03-10T14:43:27.599Z,98692.63
2023-03-10T14:48:35.720Z,98678.34
2023-03-10T14:53:38.673Z,98703.91
2023-03-10T14:58:54.269Z,98701.19
2023-03-10T15:03:56.858Z,98719.31
2023-03-10T15:09:01.235Z,98728.78
2023-03-10T15:14:18.752Z,98717.31
2023-03-10T15:19:23.695Z,98735.50
2023-03-10T15:24:26.334Z,98738.47
2023-03-10T15:29:29.009Z,98764.16
2023-03-10T15:34:31.987Z,98776.88
2023-03-10T15:39:37.098Z,98782.91
2023-03-10T15:44:40.232Z,98787.06
2023-03-10T15:49:42.905Z,98786.66
2023-03-10T15:54:45.950Z,98783.97
2023-03-10T15:59:48.671Z,98793.72
2023-03-10T16:04:51.510Z,98808.81
2023-03-10T16:09:54.343Z,98819.34
2023-03-10T16:14:57.440Z,98823.69
2023-03-10T16:20:02.304Z,98818.06
2023-03-10T16:25:09.507Z,98806.47
2023-03-10T16:30:14.250Z,98838.44
2023-03-10T16:35:19.076Z,98828.75
2023-03-10T16:40:22.368Z,98835.97
2023-03-10T16:45:25.069Z,98841.19
2023-03-10T16:50:27.683Z,98835.75
2023-03-10T16:55:30.406Z,98816.38
2023-03-10T17:00:33.084Z,98801.00
2023-03-10T17:05:35.992Z,98831.59
2023-03-10T17:10:38.728Z,98840.88
2023-03-10T17:15:41.449Z,98844.03
2023-03-10T17:20:44.252Z,98819.69
2023-03-10T17:25:47.184Z,98836.31
2023-03-10T17:30:50.108Z,98844.13
2023-03-10T17:35:53.397Z,98833.97
2023-03-10T17:40:56.203Z,98834.47
2023-03-10T17:46:00.674Z,98830.81
2023-03-10T17:51:04.055Z,98848.31
2023-03-10T17:56:07.997Z,98849.94
2023-03-10T18:01:23.396Z,98823.94
2023-03-10T18:06:29.717Z,98852.28
2023-03-10T18:11:33.330Z,98831.06
2023-03-10T18:16:39.509Z,98862.50
2023-03-10T18:21:42.414Z,98867.13
2023-03-10T18:26:45.811Z,98875.50
2023-03-10T18:31:48.715Z,98860.78
2023-03-10T18:36:52.062Z,98871.47
2023-03-10T18:41:55.396Z,98862.78
2023-03-10T18:46:57.981Z,98875.69
2023-03-10T18:52:00.867Z,98884.06
2023-03-10T18:57:04.891Z,98889.78
2023-03-10T19:02:12.626Z,98884.97
2023-03-10T19:07:17.603Z,98879.22
2023-03-10T19:12:20.758Z,98880.47
2023-03-10T19:17:26.501Z,98878.41
2023-03-10T19:22:30.459Z,98879.06
2023-03-10T19:27:33.896Z,98874.00
2023-03-10T19:32:37.122Z,98877.13
2023-03-10T19:37:43.495Z,98900.38
2023-03-10T19:42:46.555Z,98908.38
2023-03-10T19:47:49.283Z,98899.88
2023-03-10T19:52:51.988Z,98905.06
2023-03-10T19:57:58.526Z,98906.75
2023-03-10T20:03:01.124Z,98911.69
2023-03-10T20:08:03.988Z,98916.19
2023-03-10T20:13:06.707Z,98902.50
2023-03-10T20:18:09.409Z,98897.91
2023-03-10T20:23:11.981Z,98909.31
2023-03-10T20:28:15.255Z,98921.97
2023-03-10T20:33:20.473Z,98922.59
2023-03-10T20:38:23.484Z,98922.63
2023-03-10T20:43:27.020Z,98934.25
2023-03-10T20:48:29.606Z,98924.25
2023-03-10T20:53:33.508Z,98938.44
2023-03-10T20:58:36.779Z,98942.47
2023-03-10T21:03:39.422Z,98946.16
2023-03-10T21:08:42.026Z,98951.53
2023-03-10T21:13:44.959Z,98965.22
2023-03-10T21:18:47.511Z,98963.16
2023-03-10T21:23:50.571Z,98956.69
2023-03-10T21:28:53.221Z,98936.25
2023-03-10T21:33:55.840Z,98969.13
2023-03-10T21:38:58.578Z,98978.34
2023-03-10T21:44:01.621Z,98949.28
2023-03-10T21:49:04.229Z,98984.50
2023-03-10T21:54:07.466Z,98990.63
2023-03-10T21:59:10.695Z,98987.13
2023-03-10T22:04:13.587Z,98974.75
2023-03-10T22:09:16.140Z,98979.06
2023-03-10T22:14:18.698Z,98968.22
2023-03-10T22:19:21.208Z,98977.69
2023-03-10T22:24:23.787Z,98994.41
2023-03-10T22:29:26.454Z,98983.41
2023-03-10T22:34:29.065Z,98993.34
2023-03-10T22:39:31.679Z,99005.63
2023-03-10T22:44:36.377Z,98988.78
2023-03-10T22:49:41.765Z,98987.91
2023-03-10T22:54:47.021Z,98997.72
2023-03-10T22:59:49.533Z,98998.09
2023-03-10T23:04:52.205Z,98976.22
2023-03-10T23:09:54.694Z,98992.41
2023-03-10T23:14:57.500Z,98993.19
2023-03-10T23:20:00.143Z,98989.47
2023-03-10T23:25:02.676Z,98990.22
2023-03-10T23:30:06.499Z,98987.22
2023-03-10T23:35:12.109Z,98957.22
2023-03-10T23:40:17.251Z,98983.22
2023-03-10T23:45:23.078Z,98950.06
2023-03-10T23:50:31.096Z,98976.78
2023-03-10T23:55:37.427Z,98973.16
